Time;durP1;ratioP1;P1;durP2;ratioP2;P2;SDS_P1;SDS_P2;PMS_P1;PMS_P2;Temp;Humidity;BMP_temperature;BMP_pressure;BME280_temperature;BME280_humidity;BME280_pressure;Samples;Min_cycle;Max_cycle;Signal;HPM_P1;HPM_P2
2022/11/20 00:02:25;;;;;;;0.00;0.00;;;;;;;;;;4995124;28;20510;-86
2022/11/20 00:04:51;;;;;;;0.00;0.00;;;;;;;;;;4994820;28;20125;-86
2022/11/20 00:07:17;;;;;;;0.00;0.00;;;;;;;;;;4978912;28;20043;-87
2022/11/20 00:09:43;;;;;;;0.00;0.00;;;;;;;;;;4994706;28;20093;-86
2022/11/20 00:12:09;;;;;;;0.00;0.00;;;;;;;;;;4994911;28;20038;-86
2022/11/20 00:14:36;;;;;;;0.20;0.10;;;;;;;;;;4994804;28;20101;-86
2022/11/20 00:17:02;;;;;;;0.82;0.15;;;;;;;;;;4962648;28;20042;-86
2022/11/20 00:19:28;;;;;;;0.00;0.00;;;;;;;;;;4994424;28;20480;-85
2022/11/20 00:21:55;;;;;;;0.00;0.00;;;;;;;;;;4994904;28;20042;-86
2022/11/20 00:24:22;;;;;;;0.00;0.00;;;;;;;;;;4994305;28;20399;-86
2022/11/20 00:26:48;;;;;;;0.00;0.00;;;;;;;;;;4994403;28;20112;-86
2022/11/20 00:29:14;;;;;;;0.00;0.00;;;;;;;;;;4994519;28;20046;-87
2022/11/20 00:31:40;;;;;;;0.00;0.00;;;;;;;;;;4994546;28;20053;-86
2022/11/20 00:34:06;;;;;;;0.00;0.00;;;;;;;;;;4994276;28;20188;-87
2022/11/20 00:36:34;;;;;;;0.00;0.00;;;;;;;;;;4994485;28;20046;-87
2022/11/20 00:39:00;;;;;;;0.00;0.00;;;;;;;;;;4994161;28;20059;-86
2022/11/20 00:41:26;;;;;;;0.00;0.00;;;;;;;;;;4994227;28;20046;-86
2022/11/20 00:43:53;;;;;;;0.00;0.00;;;;;;;;;;4977888;28;20483;-86
2022/11/20 00:46:20;;;;;;;0.00;0.00;;;;;;;;;;4978222;28;20506;-86
2022/11/20 00:48:46;;;;;;;0.00;0.00;;;;;;;;;;4993984;28;20109;-86
2022/11/20 00:51:13;;;;;;;0.00;0.00;;;;;;;;;;4994953;28;20050;-86
2022/11/20 00:53:40;;;;;;;1.45;0.47;;;;;;;;;;4993832;28;20042;-86
2022/11/20 00:56:13;;;;;;;0.10;0.10;;;;;;;;;;4977754;28;20038;-85
2022/11/20 00:58:40;;;;;;;0.20;0.10;;;;;;;;;;4994039;28;20061;-86
2022/11/20 01:01:07;;;;;;;0.00;0.00;;;;;;;;;;4994214;28;20109;-84
2022/11/20 01:03:34;;;;;;;0.00;0.00;;;;;;;;;;4977370;28;20081;-85
2022/11/20 01:06:04;;;;;;;0.00;0.00;;;;;;;;;;4978055;28;20046;-85
2022/11/20 01:08:34;;;;;;;0.00;0.00;;;;;;;;;;4977259;28;20074;-86
2022/11/20 01:11:06;;;;;;;0.00;0.00;;;;;;;;;;4993846;28;20038;-86
2022/11/20 01:13:38;;;;;;;0.00;0.00;;;;;;;;;;4993525;28;20042;-86
2022/11/20 01:16:07;;;;;;;0.00;0.00;;;;;;;;;;4993867;28;20487;-85
2022/11/20 01:18:33;;;;;;;0.00;0.00;;;;;;;;;;4977154;28;20042;-86
2022/11/20 01:21:07;;;;;;;0.00;0.00;;;;;;;;;;4977392;28;20097;-86
2022/11/20 01:23:34;;;;;;;0.00;0.00;;;;;;;;;;4993184;28;20046;-85
2022/11/20 01:26:02;;;;;;;0.00;0.00;;;;;;;;;;4993429;28;20050;-86
2022/11/20 01:28:28;;;;;;;0.00;0.00;;;;;;;;;;4977471;28;20522;-85
2022/11/20 01:30:54;;;;;;;0.00;0.00;;;;;;;;;;4993401;28;20427;-85
2022/11/20 01:33:20;;;;;;;0.00;0.00;;;;;;;;;;4993089;28;20052;-86
2022/11/20 01:35:46;;;;;;;0.00;0.00;;;;;;;;;;4993325;28;20394;-85
2022/11/20 01:38:12;;;;;;;0.00;0.00;;;;;;;;;;4993050;28;20058;-85
2022/11/20 01:40:38;;;;;;;0.00;0.00;;;;;;;;;;4977153;28;20052;-85
2022/11/20 01:43:20;;;;;;;0.25;0.03;;;;;;;;;;4993016;28;20114;-86
2022/11/20 01:45:56;;;;;;;0.00;0.00;;;;;;;;;;4993230;28;20053;-86
2022/11/20 01:48:24;;;;;;;0.00;0.00;;;;;;;;;;4976678;28;20088;-86
2022/11/20 01:50:50;;;;;;;0.20;0.20;;;;;;;;;;4993045;28;20045;-86
2022/11/20 01:53:18;;;;;;;0.00;0.00;;;;;;;;;;4992736;28;20380;-85
2022/11/20 01:55:48;;;;;;;0.00;0.00;;;;;;;;;;4977104;28;20046;-86
2022/11/20 01:58:14;;;;;;;0.00;0.00;;;;;;;;;;4993897;28;20073;-86
2022/11/20 02:00:40;;;;;;;0.00;0.00;;;;;;;;;;4992736;28;20053;-86
2022/11/20 02:03:12;;;;;;;0.00;0.00;;;;;;;;;;4991795;28;20495;-86
2022/11/20 02:05:44;;;;;;;0.00;0.00;;;;;;;;;;4976519;28;20541;-85
2022/11/20 02:08:10;;;;;;;0.00;0.00;;;;;;;;;;4992325;28;20518;-86
2022/11/20 02:10:36;;;;;;;0.00;0.00;;;;;;;;;;4992957;28;20038;-86
2022/11/20 02:15:47;;;;;;;0.00;0.00;;;;;;;;;;4992752;28;20391;-86
2022/11/20 02:18:14;;;;;;;0.00;0.00;;;;;;;;;;4992355;28;20053;-86
2022/11/20 02:20:42;;;;;;;0.00;0.00;;;;;;;;;;4993023;28;20084;-87
2022/11/20 02:23:11;;;;;;;0.00;0.00;;;;;;;;;;4976308;28;20040;-87
2022/11/20 02:25:37;;;;;;;0.00;0.00;;;;;;;;;;4992427;28;20459;-85
2022/11/20 02:28:03;;;;;;;0.00;0.00;;;;;;;;;;4992485;28;20054;-86
2022/11/20 02:30:29;;;;;;;0.00;0.00;;;;;;;;;;4976248;28;20038;-87
2022/11/20 02:32:55;;;;;;;0.00;0.00;;;;;;;;;;4992252;28;20045;-85
2022/11/20 02:35:21;;;;;;;0.00;0.00;;;;;;;;;;4992387;28;20442;-86
2022/11/20 02:37:48;;;;;;;0.00;0.00;;;;;;;;;;4991981;28;20190;-85
2022/11/20 02:40:14;;;;;;;0.00;0.00;;;;;;;;;;4976449;28;20042;-86
2022/11/20 02:42:40;;;;;;;0.20;0.10;;;;;;;;;;4992297;28;20137;-86
2022/11/20 02:45:07;;;;;;;0.00;0.00;;;;;;;;;;4976129;28;20395;-86
2022/11/20 02:47:33;;;;;;;0.00;0.00;;;;;;;;;;4992175;28;20038;-86
2022/11/20 02:49:59;;;;;;;0.00;0.00;;;;;;;;;;4992366;28;20105;-86
2022/11/20 02:52:25;;;;;;;0.00;0.00;;;;;;;;;;4992100;28;20488;-85
2022/11/20 02:54:51;;;;;;;0.00;0.00;;;;;;;;;;4991928;28;20287;-86
2022/11/20 02:57:17;;;;;;;0.00;0.00;;;;;;;;;;4992115;28;20038;-85
2022/11/20 02:59:43;;;;;;;0.00;0.00;;;;;;;;;;4976064;28;20129;-87
2022/11/20 03:02:09;;;;;;;0.00;0.00;;;;;;;;;;4975925;28;20113;-86
2022/11/20 03:04:36;;;;;;;0.00;0.00;;;;;;;;;;4991753;28;20474;-87
2022/11/20 03:07:02;;;;;;;0.00;0.00;;;;;;;;;;4992384;28;20034;-87
2022/11/20 03:09:28;;;;;;;0.00;0.00;;;;;;;;;;4991799;28;20038;-87
2022/11/20 03:11:55;;;;;;;0.00;0.00;;;;;;;;;;4975930;28;20050;-87
2022/11/20 03:14:21;;;;;;;0.00;0.00;;;;;;;;;;4993782;28;20077;-86
2022/11/20 03:16:48;;;;;;;0.00;0.00;;;;;;;;;;4980047;28;20050;-86
2022/11/20 03:19:14;;;;;;;0.00;0.00;;;;;;;;;;4995611;28;20046;-86
2022/11/20 03:21:40;;;;;;;0.00;0.00;;;;;;;;;;4979828;28;20184;-87
2022/11/20 03:24:06;;;;;;;0.00;0.00;;;;;;;;;;4995477;28;20104;-86
2022/11/20 03:26:32;;;;;;;0.00;0.00;;;;;;;;;;4995578;28;20057;-87
2022/11/20 03:28:59;;;;;;;0.00;0.00;;;;;;;;;;4979441;28;20042;-86
2022/11/20 03:31:29;;;;;;;0.15;0.10;;;;;;;;;;4979475;28;20038;-86
2022/11/20 03:33:59;;;;;;;0.00;0.00;;;;;;;;;;4994064;28;20128;-86
2022/11/20 03:36:26;;;;;;;0.00;0.00;;;;;;;;;;4979269;28;20487;-86
2022/11/20 03:38:53;;;;;;;0.00;0.00;;;;;;;;;;4995278;28;20061;-86
2022/11/20 03:41:20;;;;;;;0.00;0.00;;;;;;;;;;4995450;28;20054;-87
2022/11/20 03:43:50;;;;;;;0.00;0.00;;;;;;;;;;4979161;28;20042;-86
2022/11/20 03:46:17;;;;;;;0.00;0.00;;;;;;;;;;4995301;28;20101;-86
2022/11/20 03:48:43;;;;;;;0.05;0.05;;;;;;;;;;4979032;28;20093;-86
2022/11/20 03:51:09;;;;;;;0.28;0.28;;;;;;;;;;4979508;28;20042;-86
2022/11/20 03:53:35;;;;;;;0.00;0.00;;;;;;;;;;4996341;28;20065;-86
2022/11/20 03:56:01;;;;;;;0.00;0.00;;;;;;;;;;4979251;28;20119;-87
2022/11/20 03:58:27;;;;;;;0.00;0.00;;;;;;;;;;4994897;28;20073;-86
2022/11/20 04:00:53;;;;;;;0.00;0.00;;;;;;;;;;4995153;28;20421;-86
2022/11/20 04:03:20;;;;;;;0.00;0.00;;;;;;;;;;4978810;28;20038;-86
2022/11/20 04:05:46;;;;;;;0.00;0.00;;;;;;;;;;4994814;28;20404;-86
2022/11/20 04:08:11;;;;;;;0.00;0.00;;;;;;;;;;4995024;28;20042;-87
2022/11/20 04:10:37;;;;;;;0.00;0.00;;;;;;;;;;4994829;28;20061;-86
2022/11/20 04:13:03;;;;;;;0.00;0.00;;;;;;;;;;4995168;28;20145;-86
2022/11/20 04:15:29;;;;;;;0.00;0.00;;;;;;;;;;4994689;28;20088;-86
2022/11/20 04:17:55;;;;;;;0.00;0.00;;;;;;;;;;4994829;28;20046;-87
2022/11/20 04:20:21;;;;;;;0.00;0.00;;;;;;;;;;4994479;28;20054;-86
2022/11/20 04:22:47;;;;;;;0.00;0.00;;;;;;;;;;4994756;28;20034;-86
2022/11/20 04:25:13;;;;;;;0.00;0.00;;;;;;;;;;4977380;28;20054;-86
2022/11/20 04:27:39;;;;;;;0.00;0.00;;;;;;;;;;4978297;28;20034;-86
2022/11/20 04:30:06;;;;;;;0.00;0.00;;;;;;;;;;4994646;28;20046;-86
2022/11/20 04:32:32;;;;;;;0.10;0.05;;;;;;;;;;4978323;28;20045;-86
2022/11/20 04:34:57;;;;;;;0.00;0.00;;;;;;;;;;4994268;28;20042;-86
2022/11/20 04:37:23;;;;;;;0.00;0.00;;;;;;;;;;4994403;28;20045;-86
2022/11/20 04:39:49;;;;;;;0.00;0.00;;;;;;;;;;4994116;28;20144;-86
2022/11/20 04:42:28;;;;;;;0.00;0.00;;;;;;;;;;4978197;28;20564;-87
2022/11/20 04:44:53;;;;;;;0.00;0.00;;;;;;;;;;4977842;28;20038;-86
2022/11/20 04:47:19;;;;;;;0.00;0.00;;;;;;;;;;4994282;28;20038;-86
2022/11/20 04:49:45;;;;;;;0.00;0.00;;;;;;;;;;4994024;28;20135;-86
2022/11/20 04:52:11;;;;;;;0.00;0.00;;;;;;;;;;4977932;28;20411;-87
2022/11/20 04:54:37;;;;;;;0.00;0.00;;;;;;;;;;4993941;28;20068;-87
2022/11/20 04:57:03;;;;;;;0.00;0.00;;;;;;;;;;4977770;28;20427;-86
2022/11/20 04:59:29;;;;;;;0.00;0.00;;;;;;;;;;4993934;28;20078;-86
2022/11/20 05:01:55;;;;;;;0.00;0.00;;;;;;;;;;4993922;28;20144;-86
2022/11/20 05:04:21;;;;;;;0.00;0.00;;;;;;;;;;4993820;28;20042;-86
2022/11/20 05:06:47;;;;;;;0.00;0.00;;;;;;;;;;4995739;28;20049;-87
2022/11/20 05:09:13;;;;;;;0.00;0.00;;;;;;;;;;4993552;28;20092;-86
2022/11/20 05:11:39;;;;;;;0.00;0.00;;;;;;;;;;4993820;28;20038;-87
2022/11/20 05:14:06;;;;;;;0.00;0.00;;;;;;;;;;4993630;28;20038;-86
2022/11/20 05:16:34;;;;;;;0.00;0.00;;;;;;;;;;4993595;28;20050;-86
2022/11/20 05:19:00;;;;;;;0.00;0.00;;;;;;;;;;4993890;28;20121;-87
2022/11/20 05:21:27;;;;;;;0.00;0.00;;;;;;;;;;4993460;28;20069;-87
2022/11/20 05:23:53;;;;;;;0.00;0.00;;;;;;;;;;4977206;28;20042;-87
2022/11/20 05:26:21;;;;;;;0.00;0.00;;;;;;;;;;4993328;28;20089;-87
2022/11/20 05:28:47;;;;;;;0.00;0.00;;;;;;;;;;4993492;28;20038;-86
2022/11/20 05:31:15;;;;;;;0.00;0.00;;;;;;;;;;4977110;28;20053;-86
2022/11/20 05:33:42;;;;;;;0.00;0.00;;;;;;;;;;4993328;28;20423;-86
2022/11/20 05:36:09;;;;;;;0.00;0.00;;;;;;;;;;4976911;28;20049;-87
2022/11/20 05:38:35;;;;;;;0.00;0.00;;;;;;;;;;4993000;28;20065;-87
2022/11/20 05:41:10;;;;;;;0.10;0.05;;;;;;;;;;4976739;28;20046;-86
2022/11/20 05:43:40;;;;;;;0.00;0.00;;;;;;;;;;4993242;28;20042;-87
2022/11/20 05:46:09;;;;;;;0.20;0.20;;;;;;;;;;4976810;28;20042;-86
2022/11/20 05:48:36;;;;;;;0.00;0.00;;;;;;;;;;4993079;28;20042;-88
2022/11/20 05:51:02;;;;;;;0.00;0.00;;;;;;;;;;4976899;28;20101;-87
2022/11/20 05:53:28;;;;;;;0.00;0.00;;;;;;;;;;4993201;28;20456;-87
2022/11/20 05:56:01;;;;;;;0.00;0.00;;;;;;;;;;4993004;28;20526;-84
2022/11/20 05:58:27;;;;;;;0.00;0.00;;;;;;;;;;4992783;28;20045;-86
2022/11/20 06:00:53;;;;;;;0.00;0.00;;;;;;;;;;4992708;28;20045;-85
2022/11/20 06:03:20;;;;;;;0.00;0.00;;;;;;;;;;4992859;28;20042;-86
2022/11/20 06:05:46;;;;;;;0.00;0.00;;;;;;;;;;4992532;28;20042;-85
2022/11/20 06:08:12;;;;;;;0.00;0.00;;;;;;;;;;4992959;28;20533;-85
2022/11/20 06:10:38;;;;;;;0.45;0.28;;;;;;;;;;4992400;28;20045;-85
2022/11/20 06:13:04;;;;;;;0.00;0.00;;;;;;;;;;4976436;28;20042;-85
2022/11/20 06:15:30;;;;;;;0.00;0.00;;;;;;;;;;4992510;28;20467;-86
2022/11/20 06:17:56;;;;;;;0.00;0.00;;;;;;;;;;4992804;28;20108;-86
2022/11/20 06:20:22;;;;;;;0.00;0.00;;;;;;;;;;4992797;28;20057;-86
2022/11/20 06:22:48;;;;;;;0.00;0.00;;;;;;;;;;4976331;28;20038;-85
2022/11/20 06:25:14;;;;;;;0.00;0.00;;;;;;;;;;4975908;28;20384;-85
2022/11/20 06:27:40;;;;;;;0.00;0.00;;;;;;;;;;4992432;28;20046;-85
2022/11/20 06:30:08;;;;;;;0.00;0.00;;;;;;;;;;4992733;28;20042;-86
2022/11/20 06:32:34;;;;;;;0.00;0.00;;;;;;;;;;4993660;28;20483;-85
2022/11/20 06:35:00;;;;;;;0.00;0.00;;;;;;;;;;4992261;28;20161;-85
2022/11/20 06:37:25;;;;;;;0.00;0.00;;;;;;;;;;4992175;28;20399;-84
2022/11/20 06:39:51;;;;;;;0.00;0.00;;;;;;;;;;4992287;28;20064;-85
2022/11/20 06:42:17;;;;;;;0.00;0.00;;;;;;;;;;4992241;28;20046;-85
2022/11/20 06:44:43;;;;;;;0.00;0.00;;;;;;;;;;4992447;28;20034;-86
2022/11/20 06:47:09;;;;;;;0.00;0.00;;;;;;;;;;4992104;28;20038;-86
2022/11/20 06:49:38;;;;;;;0.00;0.00;;;;;;;;;;4975734;28;20438;-85
2022/11/20 06:52:04;;;;;;;0.22;0.00;;;;;;;;;;4992110;28;20137;-86
2022/11/20 06:54:30;;;;;;;0.00;0.00;;;;;;;;;;4975880;28;20042;-85
2022/11/20 06:56:56;;;;;;;0.00;0.00;;;;;;;;;;4992003;28;20188;-86
2022/11/20 06:59:22;;;;;;;0.00;0.00;;;;;;;;;;4992297;28;20081;-85
2022/11/20 07:01:48;;;;;;;0.00;0.00;;;;;;;;;;4991947;28;20408;-86
2022/11/20 07:04:14;;;;;;;0.00;0.00;;;;;;;;;;4992262;28;20046;-85
2022/11/20 07:06:40;;;;;;;0.00;0.00;;;;;;;;;;4991787;28;20078;-86
2022/11/20 07:09:05;;;;;;;0.00;0.00;;;;;;;;;;4975571;28;20487;-85
2022/11/20 07:11:31;;;;;;;0.00;0.00;;;;;;;;;;4975757;28;20038;-85
2022/11/20 07:13:57;;;;;;;0.00;0.00;;;;;;;;;;4992210;28;20034;-85
2022/11/20 07:16:23;;;;;;;0.00;0.00;;;;;;;;;;4991808;28;20372;-85
2022/11/20 07:18:49;;;;;;;0.00;0.00;;;;;;;;;;4992266;28;20053;-87
2022/11/20 07:21:15;;;;;;;0.00;0.00;;;;;;;;;;4991727;28;20444;-87
2022/11/20 07:23:41;;;;;;;0.00;0.00;;;;;;;;;;4992086;28;20045;-84
2022/11/20 07:26:09;;;;;;;0.00;0.00;;;;;;;;;;4991679;28;20049;-85
2022/11/20 07:28:35;;;;;;;0.00;0.00;;;;;;;;;;4991891;28;20039;-85
2022/11/20 07:31:01;;;;;;;2.08;0.30;;;;;;;;;;4991642;28;20039;-86
2022/11/20 07:33:27;;;;;;;0.00;0.00;;;;;;;;;;4992082;28;20038;-85
2022/11/20 07:35:53;;;;;;;0.03;0.00;;;;;;;;;;4988725;28;20047;-85
2022/11/20 07:38:19;;;;;;;0.00;0.00;;;;;;;;;;4972092;28;20464;-85
2022/11/20 07:40:45;;;;;;;0.00;0.00;;;;;;;;;;4972081;28;20046;-85
2022/11/20 07:43:11;;;;;;;0.00;0.00;;;;;;;;;;4973263;28;20054;-85
2022/11/20 07:45:37;;;;;;;0.00;0.00;;;;;;;;;;4991106;28;20046;-86
2022/11/20 07:48:03;;;;;;;0.00;0.00;;;;;;;;;;4991409;28;20547;-86
2022/11/20 07:50:29;;;;;;;0.00;0.00;;;;;;;;;;4991447;28;20121;-86
2022/11/20 07:53:02;;;;;;;0.00;0.00;;;;;;;;;;4991502;28;20038;-85
2022/11/20 07:55:28;;;;;;;0.00;0.00;;;;;;;;;;4984157;28;20043;-85
2022/11/20 07:57:55;;;;;;;0.00;0.00;;;;;;;;;;4971741;28;20407;-85
2022/11/20 08:00:21;;;;;;;0.00;0.00;;;;;;;;;;4972105;28;20443;-86
2022/11/20 08:02:47;;;;;;;0.00;0.00;;;;;;;;;;4975289;28;20096;-85
2022/11/20 08:05:13;;;;;;;0.00;0.00;;;;;;;;;;4989327;28;20050;-86
2022/11/20 08:07:40;;;;;;;0.00;0.00;;;;;;;;;;4978319;28;20077;-84
2022/11/20 08:10:10;;;;;;;0.00;0.00;;;;;;;;;;4994577;28;20038;-84
2022/11/20 08:15:21;;;;;;;0.20;0.05;;;;;;;;;;4990962;28;20086;-85
2022/11/20 08:17:47;;;;;;;0.00;0.00;;;;;;;;;;4976049;28;20045;-85
2022/11/20 08:20:13;;;;;;;0.00;0.00;;;;;;;;;;4959032;28;20038;-85
2022/11/20 08:22:39;;;;;;;0.00;0.00;;;;;;;;;;4958933;28;20130;-85
2022/11/20 08:25:08;;;;;;;0.00;0.00;;;;;;;;;;4974832;28;20046;-85
2022/11/20 08:27:34;;;;;;;0.00;0.00;;;;;;;;;;4982180;28;20070;-85
2022/11/20 08:30:00;;;;;;;0.00;0.00;;;;;;;;;;4994336;28;20113;-85
2022/11/20 08:32:26;;;;;;;0.00;0.00;;;;;;;;;;4978314;28;20052;-84
2022/11/20 08:34:52;;;;;;;0.00;0.00;;;;;;;;;;4994609;28;20495;-85
2022/11/20 08:37:18;;;;;;;0.00;0.00;;;;;;;;;;4994325;28;20172;-86
2022/11/20 08:39:44;;;;;;;0.00;0.00;;;;;;;;;;4994452;28;20066;-86
2022/11/20 08:42:10;;;;;;;0.00;0.00;;;;;;;;;;4994390;28;20039;-86
2022/11/20 08:44:36;;;;;;;0.00;0.00;;;;;;;;;;4994762;28;20599;-86
2022/11/20 08:47:02;;;;;;;0.00;0.00;;;;;;;;;;4978032;28;20055;-85
2022/11/20 08:49:28;;;;;;;0.00;0.00;;;;;;;;;;4994981;28;20397;-85
2022/11/20 08:51:55;;;;;;;0.00;0.00;;;;;;;;;;4994520;28;20049;-85
2022/11/20 08:54:21;;;;;;;0.00;0.00;;;;;;;;;;4994305;28;20463;-90
2022/11/20 08:56:48;;;;;;;0.00;0.00;;;;;;;;;;4977924;28;20043;-86
2022/11/20 08:59:13;;;;;;;0.00;0.00;;;;;;;;;;4994518;28;20042;-87
2022/11/20 09:01:40;;;;;;;0.00;0.00;;;;;;;;;;4993957;28;20072;-85
2022/11/20 09:04:07;;;;;;;0.00;0.00;;;;;;;;;;4993866;28;20058;-86
2022/11/20 09:06:33;;;;;;;0.00;0.00;;;;;;;;;;4977399;28;20039;-85
2022/11/20 09:08:59;;;;;;;0.00;0.00;;;;;;;;;;4993788;28;20045;-86
2022/11/20 09:11:25;;;;;;;0.00;0.00;;;;;;;;;;4977477;28;20042;-91
2022/11/20 09:13:51;;;;;;;0.00;0.00;;;;;;;;;;4995190;28;20046;-85
2022/11/20 09:16:17;;;;;;;0.00;0.00;;;;;;;;;;4993865;28;20050;-86
2022/11/20 09:18:43;;;;;;;0.00;0.00;;;;;;;;;;4993599;28;20042;-86
2022/11/20 09:21:10;;;;;;;0.00;0.00;;;;;;;;;;4993745;28;20089;-86
2022/11/20 09:23:37;;;;;;;0.00;0.00;;;;;;;;;;4993671;28;20080;-86
2022/11/20 09:26:13;;;;;;;0.00;0.00;;;;;;;;;;4993494;28;20046;-87
2022/11/20 09:28:39;;;;;;;0.00;0.00;;;;;;;;;;4993495;28;20125;-86
2022/11/20 09:31:08;;;;;;;0.00;0.00;;;;;;;;;;4993901;28;20085;-86
2022/11/20 09:33:34;;;;;;;0.00;0.00;;;;;;;;;;4993246;28;20096;-86
2022/11/20 09:36:00;;;;;;;0.00;0.00;;;;;;;;;;4992868;28;20069;-87
2022/11/20 09:38:26;;;;;;;0.00;0.00;;;;;;;;;;5008389;28;20451;-86
2022/11/20 09:41:01;;;;;;;0.00;0.00;;;;;;;;;;5014908;28;20053;-87
2022/11/20 09:43:27;;;;;;;;;;;;;;;;;;5015846;28;20038;-87
2022/11/20 09:46:03;;;;;;;0.00;0.00;;;;;;;;;;5014911;28;20267;-87
2022/11/20 09:48:47;;;;;;;0.00;0.00;;;;;;;;;;5012637;28;20046;-86
2022/11/20 09:51:22;;;;;;;0.00;0.00;;;;;;;;;;5013233;28;20075;-86
2022/11/20 09:54:11;;;;;;;0.00;0.00;;;;;;;;;;5012542;28;20084;-86
2022/11/20 09:56:42;;;;;;;0.00;0.00;;;;;;;;;;5000310;28;20052;-86
2022/11/20 09:59:14;;;;;;;0.00;0.00;;;;;;;;;;5012473;28;20046;-85
2022/11/20 10:01:43;;;;;;;0.00;0.00;;;;;;;;;;5012857;28;20391;-85
2022/11/20 10:04:19;;;;;;;0.00;0.00;;;;;;;;;;4995911;28;20045;-85
2022/11/20 10:06:53;;;;;;;0.00;0.00;;;;;;;;;;5012396;28;20046;-85
2022/11/20 10:09:22;;;;;;;0.00;0.00;;;;;;;;;;5012452;28;20049;-85
2022/11/20 10:11:54;;;;;;;0.00;0.00;;;;;;;;;;5012753;28;20046;-86
2022/11/20 10:14:32;;;;;;;0.00;0.00;;;;;;;;;;5013464;28;20034;-85
2022/11/20 10:17:24;;;;;;;0.00;0.00;;;;;;;;;;4979526;28;20090;-85
2022/11/20 10:20:15;;;;;;;0.00;0.00;;;;;;;;;;4970549;28;20389;-86
2022/11/20 10:22:53;;;;;;;0.03;0.03;;;;;;;;;;4956837;28;20211;-86
2022/11/20 10:25:20;;;;;;;0.00;0.00;;;;;;;;;;4973101;28;20441;-85
2022/11/20 10:27:46;;;;;;;0.05;0.05;;;;;;;;;;4972911;28;20043;-85
2022/11/20 10:30:14;;;;;;;0.00;0.00;;;;;;;;;;4972976;28;20129;-86
2022/11/20 10:32:46;;;;;;;0.00;0.00;;;;;;;;;;4957031;28;20038;-86
2022/11/20 10:35:12;;;;;;;0.00;0.00;;;;;;;;;;4973149;28;20137;-86
2022/11/20 10:37:40;;;;;;;0.10;0.10;;;;;;;;;;4972916;28;20511;-86
2022/11/20 10:40:15;;;;;;;0.00;0.00;;;;;;;;;;4973389;28;20189;-86
2022/11/20 10:42:45;;;;;;;0.00;0.00;;;;;;;;;;4973404;28;20057;-87
2022/11/20 10:45:20;;;;;;;0.00;0.00;;;;;;;;;;4972840;28;20050;-87
2022/11/20 10:47:46;;;;;;;0.00;0.00;;;;;;;;;;4956562;28;20039;-86
2022/11/20 10:50:14;;;;;;;0.00;0.00;;;;;;;;;;4957182;28;20131;-87
2022/11/20 10:52:57;;;;;;;0.00;0.00;;;;;;;;;;4956565;28;20369;-86
2022/11/20 10:55:38;;;;;;;0.00;0.00;;;;;;;;;;4972829;28;20086;-86
2022/11/20 10:58:10;;;;;;;0.52;0.30;;;;;;;;;;4956627;28;20043;-86
2022/11/20 11:00:36;;;;;;;0.00;0.00;;;;;;;;;;4957383;28;20042;-87
2022/11/20 11:03:02;;;;;;;0.00;0.00;;;;;;;;;;4972913;28;20097;-87
2022/11/20 11:05:31;;;;;;;0.00;0.00;;;;;;;;;;4956439;28;20043;-86
2022/11/20 11:07:58;;;;;;;0.00;0.00;;;;;;;;;;4972376;28;20039;-86
2022/11/20 11:10:36;;;;;;;0.00;0.00;;;;;;;;;;4973019;28;20046;-87
2022/11/20 11:13:02;;;;;;;0.00;0.00;;;;;;;;;;4972581;28;20050;-87
2022/11/20 11:15:39;;;;;;;0.00;0.00;;;;;;;;;;4956589;28;20046;-87
2022/11/20 11:18:08;;;;;;;0.00;0.00;;;;;;;;;;4956239;28;20047;-88
2022/11/20 11:20:34;;;;;;;0.00;0.00;;;;;;;;;;4972620;28;20050;-87
2022/11/20 11:23:00;;;;;;;0.00;0.00;;;;;;;;;;4972590;28;20046;-87
2022/11/20 11:25:27;;;;;;;0.00;0.00;;;;;;;;;;4972552;28;20097;-87
2022/11/20 11:27:56;;;;;;;0.00;0.00;;;;;;;;;;4972471;28;20129;-87
2022/11/20 11:30:22;;;;;;;0.00;0.00;;;;;;;;;;4972534;28;20061;-87
2022/11/20 11:32:48;;;;;;;0.00;0.00;;;;;;;;;;4972498;28;20047;-87
2022/11/20 11:35:21;;;;;;;0.00;0.00;;;;;;;;;;4974097;28;20038;-87
2022/11/20 11:37:48;;;;;;;0.00;0.00;;;;;;;;;;4959996;28;20047;-87
2022/11/20 11:40:14;;;;;;;0.00;0.00;;;;;;;;;;4976172;28;20514;-87
2022/11/20 11:42:44;;;;;;;0.00;0.00;;;;;;;;;;4976571;28;20046;-86
2022/11/20 11:45:17;;;;;;;0.00;0.00;;;;;;;;;;4975898;28;20050;-87
2022/11/20 11:47:43;;;;;;;0.00;0.00;;;;;;;;;;4976462;28;20061;-86
2022/11/20 11:50:09;;;;;;;0.00;0.00;;;;;;;;;;4975719;28;20452;-87
2022/11/20 11:52:53;;;;;;;0.00;0.00;;;;;;;;;;4959833;28;20451;-86
2022/11/20 11:55:31;;;;;;;0.00;0.00;;;;;;;;;;4959883;28;20042;-86
2022/11/20 11:58:00;;;;;;;0.00;0.00;;;;;;;;;;4975881;28;20510;-87
2022/11/20 12:00:27;;;;;;;0.00;0.00;;;;;;;;;;4975525;28;20074;-87
2022/11/20 12:02:59;;;;;;;0.00;0.00;;;;;;;;;;4959852;28;20042;-86
2022/11/20 12:05:27;;;;;;;0.00;0.00;;;;;;;;;;4975708;28;20039;-86
2022/11/20 12:08:02;;;;;;;0.00;0.00;;;;;;;;;;4959460;28;20399;-87
2022/11/20 12:10:38;;;;;;;0.00;0.00;;;;;;;;;;4975761;28;20054;-86
2022/11/20 12:13:21;;;;;;;0.00;0.00;;;;;;;;;;4975476;28;20045;-86
2022/11/20 12:15:48;;;;;;;0.00;0.00;;;;;;;;;;4959815;28;20130;-87
2022/11/20 12:18:21;;;;;;;0.00;0.00;;;;;;;;;;4975220;28;20042;-86
2022/11/20 12:21:07;;;;;;;0.00;0.00;;;;;;;;;;4975426;28;20110;-85
2022/11/20 12:23:39;;;;;;;0.00;0.00;;;;;;;;;;4965157;28;20051;-87
2022/11/20 12:26:10;;;;;;;0.00;0.00;;;;;;;;;;4975420;28;20511;-86
2022/11/20 12:28:44;;;;;;;0.00;0.00;;;;;;;;;;4975002;28;20049;-85
2022/11/20 12:31:29;;;;;;;0.00;0.00;;;;;;;;;;4975284;28;20039;-85
2022/11/20 12:34:01;;;;;;;0.00;0.00;;;;;;;;;;4959050;28;20047;-86
2022/11/20 12:36:28;;;;;;;0.00;0.00;;;;;;;;;;4975390;28;20431;-89
2022/11/20 12:38:57;;;;;;;0.00;0.00;;;;;;;;;;4976086;28;20134;-91
2022/11/20 12:47:43;;;;;;;0.00;0.00;;;;;;;;;;4974267;28;20408;-86
2022/11/20 12:50:27;;;;;;;0.20;0.20;;;;;;;;;;4974989;28;20253;-85
2022/11/20 12:53:08;;;;;;;0.00;0.00;;;;;;;;;;4975047;28;20046;-85
2022/11/20 12:55:41;;;;;;;0.00;0.00;;;;;;;;;;4974783;28;20501;-85
2022/11/20 12:58:20;;;;;;;0.00;0.00;;;;;;;;;;4974738;28;20034;-85
2022/11/20 13:00:56;;;;;;;0.00;0.00;;;;;;;;;;4972062;28;20039;-85
2022/11/20 13:03:58;;;;;;;0.00;0.00;;;;;;;;;;4958740;28;20055;-84
2022/11/20 13:06:25;;;;;;;0.00;0.00;;;;;;;;;;4919485;29;20046;-86
2022/11/20 13:08:55;;;;;;;0.00;0.00;;;;;;;;;;4962608;28;20133;-85
2022/11/20 13:11:37;;;;;;;0.00;0.00;;;;;;;;;;4974511;28;20081;-85
2022/11/20 13:14:18;;;;;;;0.00;0.00;;;;;;;;;;4974470;28;20046;-85
2022/11/20 13:16:47;;;;;;;0.00;0.00;;;;;;;;;;4974467;28;20046;-85
2022/11/20 13:19:15;;;;;;;0.00;0.00;;;;;;;;;;4973997;28;20049;-86
2022/11/20 13:21:42;;;;;;;0.00;0.00;;;;;;;;;;4974410;28;20455;-84
2022/11/20 13:24:27;;;;;;;0.00;0.00;;;;;;;;;;4958185;28;20043;-83
2022/11/20 13:27:04;;;;;;;0.00;0.00;;;;;;;;;;4973991;28;20492;-84
2022/11/20 13:29:30;;;;;;;0.00;0.00;;;;;;;;;;4973792;28;20043;-83
2022/11/20 13:32:07;;;;;;;0.00;0.00;;;;;;;;;;4974081;28;20457;-84
2022/11/20 13:34:35;;;;;;;0.00;0.00;;;;;;;;;;4974187;28;20065;-83
2022/11/20 13:37:03;;;;;;;0.00;0.00;;;;;;;;;;4973782;28;20089;-84
2022/11/20 13:39:33;;;;;;;0.00;0.00;;;;;;;;;;4957380;28;20058;-85
2022/11/20 13:42:02;;;;;;;0.03;0.03;;;;;;;;;;4958127;28;20078;-84
2022/11/20 13:44:39;;;;;;;0.00;0.00;;;;;;;;;;4973735;28;20078;-84
2022/11/20 13:47:20;;;;;;;0.00;0.00;;;;;;;;;;4973825;28;20050;-85
2022/11/20 13:49:48;;;;;;;0.00;0.00;;;;;;;;;;4974100;28;20068;-85
2022/11/20 13:52:32;;;;;;;0.00;0.00;;;;;;;;;;4957556;28;20039;-84
2022/11/20 13:55:19;;;;;;;0.00;0.00;;;;;;;;;;4973367;28;20039;-84
2022/11/20 13:57:48;;;;;;;0.00;0.00;;;;;;;;;;4973977;28;20085;-85
2022/11/20 14:00:18;;;;;;;0.00;0.00;;;;;;;;;;4973165;28;20129;-85
2022/11/20 14:02:52;;;;;;;0.00;0.00;;;;;;;;;;4957335;28;20047;-85
2022/11/20 14:05:20;;;;;;;0.00;0.00;;;;;;;;;;4973202;28;20046;-84
2022/11/20 14:07:47;;;;;;;0.00;0.00;;;;;;;;;;4957293;28;20479;-85
2022/11/20 14:10:22;;;;;;;0.00;0.00;;;;;;;;;;4973323;28;20074;-83
2022/11/20 14:12:48;;;;;;;0.00;0.00;;;;;;;;;;4973334;28;20555;-84
2022/11/20 14:15:33;;;;;;;0.00;0.00;;;;;;;;;;4973138;28;20077;-85
2022/11/20 14:18:00;;;;;;;0.00;0.00;;;;;;;;;;4956985;28;20054;-85
2022/11/20 14:20:31;;;;;;;0.17;0.10;;;;;;;;;;4973109;28;20408;-85
2022/11/20 14:22:58;;;;;;;0.00;0.00;;;;;;;;;;4957033;28;20039;-84
2022/11/20 14:25:27;;;;;;;0.00;0.00;;;;;;;;;;4972697;28;20102;-85
2022/11/20 14:27:57;;;;;;;0.38;0.38;;;;;;;;;;4957286;28;20047;-86
2022/11/20 14:30:28;;;;;;;0.00;0.00;;;;;;;;;;4972955;28;20048;-85
2022/11/20 14:32:56;;;;;;;0.00;0.00;;;;;;;;;;4957049;28;20105;-85
2022/11/20 14:35:27;;;;;;;0.00;0.00;;;;;;;;;;4972814;28;20061;-84
2022/11/20 14:37:53;;;;;;;0.00;0.00;;;;;;;;;;4972689;28;20042;-87
2022/11/20 14:40:23;;;;;;;0.00;0.00;;;;;;;;;;4971038;28;20133;-86
2022/11/20 14:42:49;;;;;;;0.00;0.00;;;;;;;;;;4972688;28;20534;-86
2022/11/20 14:45:15;;;;;;;0.00;0.00;;;;;;;;;;4972586;28;20126;-86
2022/11/20 14:47:42;;;;;;;0.00;0.00;;;;;;;;;;4972912;28;20042;-87
2022/11/20 14:50:28;;;;;;;0.00;0.00;;;;;;;;;;4957167;28;20038;-87
2022/11/20 14:52:56;;;;;;;0.00;0.00;;;;;;;;;;4973013;28;20042;-87
2022/11/20 14:55:26;;;;;;;0.00;0.00;;;;;;;;;;4957036;28;20105;-88
2022/11/20 14:58:00;;;;;;;0.00;0.00;;;;;;;;;;4973098;28;20051;-87
2022/11/20 15:00:26;;;;;;;0.00;0.00;;;;;;;;;;4972796;28;20396;-86
2022/11/20 15:02:52;;;;;;;0.00;0.00;;;;;;;;;;4972801;28;20512;-86
2022/11/20 15:05:20;;;;;;;0.00;0.00;;;;;;;;;;4972598;28;20047;-86